Ridge, Texas
Current Conditions -  °F | °C
As of 3:15 PM on Friday 31 Oct 2014 (Local Time) from KLHB Reporting Station
Clear Clear  
Wind Chill: 22°   Ceiling: Unl
Heat Index: 22°   Visibility: 10mi
Dew Point:   Wind: 15mph
Humidity: 34%   Direction: 360°N
Pressure: 30.23"   Gusts: 21mph
Location:  31.0654°N, 96.4194°W
Report Text: KLHB 312015Z AUTO 36013G18KT 10SM CLR 22/06 A3023 RMK AO2 T02240058
Loading
Personal Weather Stations






























Interactive Weather Map
Tropical Storm Tracking
New forecast layout! Learn more

10-Day Weather Forecast

Advertisements
Track Severe Weather on mobile